createdAt,value
2018-05-17T08:49:32.487Z,932.00
2018-05-17T08:50:32.390Z,900.00
2018-05-17T08:52:25.221Z,992.00
2018-05-17T08:53:25.204Z,968.00
2018-05-17T08:55:18.124Z,968.00
2018-05-17T08:56:18.083Z,948.00
2018-05-17T08:58:10.968Z,816.00
2018-05-17T08:59:10.974Z,784.00
2018-05-17T09:01:04.021Z,736.00
2018-05-17T09:02:03.893Z,740.00
2018-05-17T09:03:56.776Z,740.00
2018-05-17T09:04:56.739Z,628.00
2018-05-17T09:06:49.719Z,644.00
2018-05-17T09:07:49.622Z,704.00
2018-05-17T09:09:44.071Z,884.00
2018-05-17T09:10:42.536Z,1016.00
2018-05-17T09:12:35.425Z,1068.00
2018-05-17T09:13:35.507Z,976.00
2018-05-17T09:15:28.284Z,896.00
2018-05-17T09:16:28.335Z,796.00
2018-05-17T09:18:21.189Z,640.00
2018-05-17T09:19:21.219Z,624.00
2018-05-17T09:21:14.052Z,736.00
2018-05-17T09:22:14.055Z,664.00
2018-05-17T09:24:06.967Z,644.00
2018-05-17T09:25:06.939Z,692.00
2018-05-17T09:26:59.836Z,716.00
2018-05-17T09:27:59.826Z,780.00
2018-05-17T09:29:52.861Z,808.00
2018-05-17T09:30:52.717Z,736.00
2018-05-17T09:32:47.095Z,708.00
2018-05-17T09:33:47.099Z,736.00
2018-05-17T09:36:05.546Z,772.00
2018-05-17T09:37:05.518Z,760.00
2018-05-17T09:38:58.406Z,728.00
2018-05-17T09:39:58.403Z,780.00
2018-05-17T09:41:51.311Z,840.00
2018-05-17T09:42:51.361Z,960.00
2018-05-17T09:44:44.174Z,1020.00
2018-05-17T09:45:44.172Z,952.00
2018-05-17T09:47:37.110Z,1076.00
2018-05-17T09:48:37.069Z,1224.00
2018-05-17T09:50:29.944Z,1992.00
2018-05-17T09:51:29.945Z,2364.00
2018-05-17T09:54:41.747Z,2292.00
2018-05-17T09:55:41.714Z,2424.00
2018-05-17T09:57:45.109Z,2316.00
2018-05-17T09:58:45.109Z,2232.00
2018-05-17T10:00:38.026Z,1932.00
2018-05-17T10:01:37.999Z,1876.00
2018-05-17T10:03:30.886Z,1420.00
2018-05-17T10:04:30.886Z,1456.00
2018-05-17T10:06:23.802Z,1620.00
2018-05-17T10:07:23.773Z,1580.00
2018-05-17T10:09:16.659Z,1340.00
2018-05-17T10:10:16.660Z,1184.00
2018-05-17T10:12:09.577Z,1048.00
2018-05-17T10:13:09.547Z,880.00
2018-05-17T10:15:03.940Z,868.00
2018-05-17T10:16:03.949Z,908.00
2018-05-17T10:17:56.847Z,1136.00
2018-05-17T10:18:56.817Z,1068.00
2018-05-17T10:20:49.711Z,1044.00
2018-05-17T10:21:49.773Z,1012.00
2018-05-17T10:23:42.667Z,1140.00
2018-05-17T10:24:42.593Z,1180.00
2018-05-17T10:26:36.984Z,1312.00
2018-05-17T10:27:36.984Z,1372.00
2018-05-17T10:29:34.981Z,1360.00
2018-05-17T10:30:34.881Z,1464.00
2018-05-17T10:32:32.755Z,1560.00
2018-05-17T10:33:32.752Z,1664.00
2018-05-17T10:35:26.179Z,1676.00
2018-05-17T10:36:26.161Z,1524.00
2018-05-17T10:38:19.528Z,1448.00
2018-05-17T10:39:19.556Z,1400.00
2018-05-17T10:41:12.520Z,1196.00
2018-05-17T10:42:12.436Z,1228.00
2018-05-17T10:44:05.305Z,1124.00
2018-05-17T10:45:05.345Z,1236.00
2018-05-17T10:46:58.288Z,1824.00
2018-05-17T10:47:58.209Z,1696.00
2018-05-17T10:49:51.103Z,1508.00
2018-05-17T10:50:51.136Z,1472.00
2018-05-17T10:52:44.029Z,1116.00
2018-05-17T10:53:44.046Z,1076.00
2018-05-17T12:32:32.685Z,1784.00
2018-05-17T12:33:30.897Z,1956.00
2018-05-17T12:34:30.761Z,2120.00
2018-05-17T12:35:30.833Z,2212.00
2018-05-17T12:36:30.815Z,2244.00
2018-05-17T12:37:30.782Z,2236.00
2018-05-17T12:38:30.862Z,2276.00
2018-05-17T12:39:30.788Z,2344.00
2018-05-17T12:40:30.789Z,2288.00
2018-05-17T12:41:30.800Z,2192.00
2018-05-17T12:42:30.804Z,2104.00
2018-05-17T12:43:30.815Z,2152.00
2018-05-17T12:44:30.814Z,2128.00
2018-05-17T12:45:30.822Z,2172.00
2018-05-17T12:46:30.831Z,2036.00
2018-05-17T12:47:30.830Z,1884.00
2018-05-17T12:48:30.837Z,1736.00
2018-05-17T12:49:30.846Z,1616.00
2018-05-17T12:50:30.851Z,1492.00
2018-05-17T12:51:30.863Z,1324.00
2018-05-17T12:52:30.868Z,1208.00
2018-05-17T12:53:30.887Z,1224.00
2018-05-17T12:54:30.883Z,1244.00
2018-05-17T12:55:30.883Z,1244.00
2018-05-17T12:56:30.893Z,1364.00
2018-05-17T12:57:30.909Z,1508.00
2018-05-17T12:58:30.915Z,1688.00
2018-05-17T12:59:30.920Z,1924.00
2018-05-17T13:00:30.919Z,2164.00
2018-05-17T13:01:30.922Z,2196.00
2018-05-17T13:02:30.929Z,2092.00
2018-05-17T13:03:30.937Z,2104.00
2018-05-17T13:04:30.941Z,2204.00
2018-05-17T13:05:30.954Z,2160.00
2018-05-17T13:08:11.883Z,2392.00
2018-05-17T13:09:11.884Z,2344.00
2018-05-17T13:10:11.834Z,2400.00
2018-05-17T13:11:11.891Z,2604.00
2018-05-17T13:12:11.855Z,2644.00
2018-05-17T13:13:11.854Z,2632.00
2018-05-17T13:14:11.859Z,2632.00
2018-05-17T13:15:11.869Z,2612.00
2018-05-17T13:16:11.877Z,2480.00
2018-05-17T13:17:11.889Z,2472.00
2018-05-17T13:18:11.886Z,2660.00
2018-05-17T13:19:11.894Z,3408.00
2018-05-17T13:20:11.904Z,2368.00
2018-05-17T13:21:11.923Z,2100.00
2018-05-17T13:22:11.915Z,1944.00
2018-05-17T13:23:11.925Z,1932.00
2018-05-17T13:24:11.929Z,1936.00
2018-05-17T13:25:11.939Z,1948.00
2018-05-17T13:26:11.945Z,1824.00
2018-05-17T13:27:11.951Z,1808.00
2018-05-17T13:28:11.954Z,1948.00
2018-05-17T13:29:11.964Z,2080.00
2018-05-17T13:30:12.058Z,2044.00
2018-05-17T13:31:11.973Z,2040.00
2018-05-17T13:32:11.982Z,2184.00
2018-05-17T13:33:11.986Z,2336.00
2018-05-17T13:34:11.992Z,2368.00
2018-05-17T13:35:12.017Z,2312.00
2018-05-17T13:36:12.008Z,2496.00
2018-05-17T13:37:12.022Z,2672.00
2018-05-17T13:38:12.024Z,2724.00
2018-05-17T13:39:12.040Z,2616.00
2018-05-17T13:40:12.037Z,2584.00
2018-05-17T13:41:12.053Z,2524.00
2018-05-17T13:42:12.049Z,2488.00
2018-05-17T13:43:12.083Z,2480.00
2018-05-17T13:44:12.063Z,2632.00
2018-05-17T13:45:12.068Z,2500.00
2018-05-17T13:46:12.079Z,2308.00
2018-05-17T13:47:12.090Z,2276.00
2018-05-17T13:48:12.109Z,2272.00
2018-05-17T13:49:12.165Z,2196.00
2018-05-17T13:50:12.103Z,2076.00
2018-05-17T13:51:12.113Z,2048.00
2018-05-17T13:52:12.123Z,1984.00
2018-05-17T13:53:12.125Z,1908.00
2018-05-17T13:54:12.136Z,1820.00
2018-05-17T13:55:12.144Z,1704.00
2018-05-17T13:56:12.146Z,1568.00
2018-05-17T13:57:12.154Z,1512.00
2018-05-17T13:58:12.163Z,1536.00
2018-05-17T13:59:12.179Z,1600.00
2018-05-17T14:00:12.179Z,1660.00
2018-05-17T14:01:12.183Z,1728.00
2018-05-17T14:02:12.201Z,1992.00
2018-05-17T14:03:12.200Z,1992.00
2018-05-17T14:04:12.216Z,2108.00
2018-05-17T14:05:12.209Z,2140.00
2018-05-17T14:06:12.218Z,2052.00
2018-05-17T14:07:12.227Z,1888.00
2018-05-17T14:08:12.231Z,1664.00
2018-05-17T14:09:12.245Z,1496.00
2018-05-17T14:10:12.247Z,1404.00
2018-05-17T14:11:12.262Z,1348.00
2018-05-17T14:12:12.266Z,1256.00
2018-05-17T14:13:12.278Z,1180.00
2018-05-17T14:14:12.277Z,1092.00
2018-05-17T14:15:12.333Z,1024.00
2018-05-17T14:16:12.288Z,1016.00
2018-05-17T14:17:12.300Z,1088.00
2018-05-17T14:18:12.373Z,1156.00
2018-05-17T14:19:12.317Z,1228.00
2018-05-17T14:20:12.330Z,1292.00
2018-05-17T14:21:12.324Z,1412.00
2018-05-17T14:22:12.331Z,1500.00
2018-05-17T14:23:12.402Z,1560.00
2018-05-17T14:24:12.342Z,1572.00
2018-05-17T14:25:12.364Z,1584.00
2018-05-17T14:26:12.373Z,1656.00
2018-05-17T14:27:12.361Z,1736.00
2018-05-17T14:28:12.372Z,1792.00
2018-05-17T14:29:12.392Z,1800.00
2018-05-17T14:30:12.396Z,1844.00
2018-05-17T14:31:12.391Z,1892.00
2018-05-17T14:32:12.398Z,1920.00
2018-05-17T14:33:12.409Z,1916.00
2018-05-17T14:34:12.417Z,1872.00
2018-05-17T14:35:12.479Z,1840.00
2018-05-17T14:36:12.504Z,1852.00
2018-05-17T14:37:12.473Z,1960.00
2018-05-17T14:38:12.443Z,2020.00
2018-05-17T14:39:12.479Z,2024.00
2018-05-17T14:40:12.493Z,2036.00
2018-05-17T14:41:12.534Z,1980.00
2018-05-17T14:42:12.535Z,1936.00
2018-05-17T14:43:13.495Z,1900.00
2018-05-17T14:44:12.563Z,1804.00
2018-05-17T14:45:13.498Z,1680.00
2018-05-17T14:46:12.611Z,1572.00
2018-05-17T14:47:12.576Z,1544.00
2018-05-17T14:48:12.532Z,1560.00
2018-05-17T14:49:12.534Z,1584.00
2018-05-17T14:50:12.554Z,1604.00
2018-05-17T14:51:12.578Z,1596.00
2018-05-17T14:52:12.560Z,1620.00
2018-05-17T14:53:12.543Z,1700.00
2018-05-17T14:54:12.552Z,1748.00
2018-05-17T14:55:12.634Z,1752.00
2018-05-17T14:56:12.576Z,1748.00
2018-05-17T14:57:12.626Z,1768.00
2018-05-17T14:58:12.627Z,1784.00
2018-05-17T14:59:12.592Z,1760.00
2018-05-17T15:00:12.651Z,1724.00
2018-05-17T15:01:12.627Z,1724.00
2018-05-17T15:02:12.608Z,1760.00
2018-05-17T15:03:12.611Z,1868.00
2018-05-17T15:04:12.623Z,1984.00
2018-05-17T15:05:12.625Z,2012.00
2018-05-17T15:06:12.631Z,2064.00
2018-05-17T15:07:12.638Z,2092.00
2018-05-17T15:08:12.647Z,2048.00
2018-05-17T15:09:12.658Z,1984.00
2018-05-17T15:10:12.672Z,1936.00
2018-05-17T15:11:14.964Z,1920.00
2018-05-17T15:12:12.673Z,2032.00
2018-05-17T15:13:12.679Z,2336.00
2018-05-17T15:14:12.687Z,2496.00
2018-05-17T15:15:12.698Z,2732.00
2018-05-17T15:16:12.702Z,2964.00
2018-05-17T15:17:12.713Z,2716.00
2018-05-17T15:18:12.778Z,3468.00
2018-05-17T15:19:12.795Z,2840.00
2018-05-17T15:20:12.729Z,2832.00
2018-05-17T15:21:12.743Z,3412.00
2018-05-17T15:22:12.744Z,3308.00
2018-05-17T15:23:12.754Z,2744.00
2018-05-17T15:24:12.775Z,2868.00
2018-05-17T15:25:12.768Z,2744.00
2018-05-17T15:26:12.775Z,2520.00
2018-05-17T15:27:12.833Z,2356.00
2018-05-17T15:28:12.870Z,2400.00
2018-05-17T15:29:12.803Z,2432.00
2018-05-17T15:30:12.809Z,2348.00
2018-05-17T15:31:12.817Z,2344.00
2018-05-17T15:32:12.826Z,2572.00
2018-05-17T15:33:12.827Z,2688.00
2018-05-17T15:34:12.839Z,2376.00
2018-05-17T15:35:12.844Z,2212.00
2018-05-17T15:36:12.860Z,2080.00
2018-05-17T15:37:12.860Z,2092.00
2018-05-17T15:38:12.868Z,2236.00
2018-05-17T15:39:12.874Z,2236.00
2018-05-17T15:40:12.882Z,2036.00
2018-05-17T15:41:12.889Z,1976.00
2018-05-17T15:42:12.898Z,1780.00
2018-05-17T15:43:12.905Z,1724.00
2018-05-17T15:44:12.913Z,1896.00
2018-05-17T15:45:12.923Z,1968.00
2018-05-17T15:46:12.932Z,1900.00
2018-05-17T15:47:12.945Z,1920.00
2018-05-17T15:48:13.033Z,1924.00
2018-05-17T15:49:12.948Z,2048.00
2018-05-17T15:50:12.967Z,2164.00
2018-05-17T15:51:12.968Z,2104.00
2018-05-17T15:52:12.977Z,2084.00
2018-05-17T15:53:12.983Z,2012.00
2018-05-17T15:54:12.986Z,1932.00
2018-05-17T15:55:12.996Z,1888.00
2018-05-17T15:56:13.004Z,1844.00
2018-05-17T15:57:13.009Z,1860.00
2018-05-17T15:58:13.019Z,1848.00
2018-05-17T15:59:13.023Z,1820.00
2018-05-17T16:00:13.035Z,1820.00
2018-05-17T16:01:13.040Z,1792.00
2018-05-17T16:02:13.056Z,1764.00
2018-05-17T16:03:13.057Z,1716.00
2018-05-17T16:04:13.061Z,1676.00
2018-05-17T16:05:13.076Z,1660.00
2018-05-17T16:06:13.079Z,1656.00
2018-05-17T16:07:13.082Z,1688.00
2018-05-17T16:08:13.094Z,1752.00
2018-05-17T16:09:13.099Z,1896.00
2018-05-17T16:10:13.106Z,1888.00
2018-05-17T16:11:13.116Z,1876.00
2018-05-17T16:12:13.120Z,1920.00
2018-05-17T16:13:13.125Z,1996.00
2018-05-17T16:14:13.136Z,2248.00
2018-05-17T16:15:13.294Z,2336.00
2018-05-17T16:16:13.151Z,2400.00
2018-05-17T16:17:13.159Z,2108.00
2018-05-17T16:18:13.170Z,2000.00
2018-05-17T16:19:13.173Z,1976.00
2018-05-17T16:20:13.182Z,2032.00
2018-05-17T16:21:13.260Z,2120.00
2018-05-17T16:22:13.194Z,2116.00
2018-05-17T16:23:13.200Z,2120.00
2018-05-17T16:24:13.213Z,1896.00
2018-05-17T16:25:13.213Z,1884.00
2018-05-17T16:26:13.223Z,1888.00
2018-05-17T16:27:13.275Z,1904.00
2018-05-17T16:28:13.242Z,1876.00
2018-05-17T16:29:13.244Z,1852.00
2018-05-17T16:30:13.251Z,1840.00
2018-05-17T16:31:13.262Z,1844.00
2018-05-17T16:32:13.265Z,1844.00
2018-05-17T16:33:13.276Z,1860.00
2018-05-17T16:34:13.283Z,1880.00
2018-05-17T16:35:13.291Z,1908.00
2018-05-17T16:36:13.302Z,1908.00
2018-05-17T16:37:13.305Z,1972.00
2018-05-17T16:38:13.309Z,1968.00
2018-05-17T16:39:13.317Z,2052.00
2018-05-17T16:40:13.332Z,2040.00
2018-05-17T16:41:13.332Z,1992.00
2018-05-17T16:42:13.346Z,1948.00
2018-05-17T16:43:13.354Z,1992.00
2018-05-17T16:44:13.352Z,1968.00
2018-05-17T16:45:13.400Z,2072.00
2018-05-17T16:46:13.372Z,2184.00
2018-05-17T16:47:13.376Z,2284.00
2018-05-17T16:48:13.528Z,2224.00
2018-05-17T16:49:13.401Z,1988.00
2018-05-17T16:50:13.397Z,2000.00
2018-05-17T16:51:13.419Z,1980.00
2018-05-17T16:52:13.420Z,2072.00
2018-05-17T16:53:13.584Z,1820.00
2018-05-17T16:54:13.487Z,1724.00
2018-05-17T16:55:13.464Z,1676.00
2018-05-17T16:56:13.474Z,1664.00
2018-05-17T16:57:13.448Z,1660.00
2018-05-17T16:58:13.527Z,1648.00
2018-05-17T16:59:13.464Z,1704.00
2018-05-17T17:00:13.471Z,1748.00
2018-05-17T17:01:13.480Z,1800.00
2018-05-17T17:02:13.500Z,1884.00
2018-05-17T17:03:13.493Z,1792.00
2018-05-17T17:04:13.503Z,1748.00
2018-05-17T17:05:13.513Z,1708.00
2018-05-17T17:06:13.518Z,1668.00
2018-05-17T17:07:13.530Z,1568.00
2018-05-17T17:08:13.546Z,1448.00
2018-05-17T17:09:13.545Z,1208.00
2018-05-17T17:10:13.544Z,1084.00
2018-05-17T17:11:13.559Z,1000.00
2018-05-17T17:12:13.564Z,928.00
2018-05-17T17:13:13.569Z,876.00
2018-05-17T17:14:13.577Z,836.00
2018-05-17T17:15:13.583Z,788.00
2018-05-17T17:16:13.589Z,752.00
2018-05-17T17:17:13.600Z,716.00
2018-05-17T17:18:13.605Z,692.00
2018-05-17T17:19:13.614Z,672.00
2018-05-17T17:20:13.625Z,656.00
2018-05-17T17:21:13.626Z,644.00
2018-05-17T17:22:13.643Z,628.00
2018-05-17T17:23:13.649Z,608.00
2018-05-17T17:24:13.652Z,596.00
2018-05-17T17:25:13.665Z,580.00
2018-05-17T17:26:13.665Z,564.00
2018-05-17T17:27:13.709Z,548.00
2018-05-17T17:28:13.691Z,536.00
2018-05-17T17:29:13.684Z,520.00
2018-05-17T17:30:13.696Z,504.00
2018-05-17T17:31:13.706Z,488.00
2018-05-17T17:32:13.714Z,472.00
2018-05-17T17:33:13.714Z,460.00
2018-05-17T17:34:13.777Z,452.00
2018-05-17T17:35:13.732Z,444.00
2018-05-17T17:36:13.753Z,444.00
2018-05-17T17:37:13.749Z,444.00
2018-05-17T17:38:13.758Z,436.00
2018-05-17T17:39:13.756Z,420.00
2018-05-17T17:40:13.766Z,412.00
2018-05-17T17:41:13.773Z,396.00
2018-05-17T17:42:13.782Z,396.00
2018-05-17T17:43:13.788Z,396.00
2018-05-17T17:44:13.797Z,404.00
2018-05-17T17:45:13.807Z,388.00
2018-05-17T17:46:13.811Z,380.00
2018-05-17T17:47:13.819Z,372.00
2018-05-17T17:48:13.832Z,368.00
2018-05-17T17:49:13.836Z,364.00
2018-05-17T17:50:13.840Z,352.00
2018-05-17T17:51:13.846Z,344.00
2018-05-17T17:52:13.856Z,340.00
2018-05-17T17:53:13.920Z,332.00
2018-05-17T17:54:13.925Z,328.00
2018-05-17T17:55:13.872Z,320.00
2018-05-17T17:56:13.898Z,312.00
2018-05-17T17:57:13.886Z,308.00
2018-05-17T17:58:13.933Z,308.00
2018-05-17T17:59:13.903Z,304.00
2018-05-17T18:00:13.909Z,296.00
2018-05-17T18:01:13.932Z,296.00
2018-05-17T18:02:13.922Z,292.00
2018-05-17T18:03:13.924Z,288.00
2018-05-17T18:04:13.930Z,280.00
2018-05-17T18:05:13.967Z,276.00
2018-05-17T18:06:13.946Z,268.00
2018-05-17T18:07:13.953Z,260.00
2018-05-17T18:08:14.022Z,256.00
2018-05-17T18:09:13.964Z,244.00
2018-05-17T18:10:14.041Z,240.00
2018-05-17T18:11:13.992Z,232.00
2018-05-17T18:12:14.054Z,220.00
2018-05-17T18:13:13.995Z,216.00
2018-05-17T18:14:14.082Z,208.00
2018-05-17T18:15:14.011Z,204.00
2018-05-17T18:16:14.035Z,196.00
2018-05-17T18:17:14.022Z,192.00
2018-05-17T18:18:14.070Z,192.00
2018-05-17T18:19:14.032Z,188.00
2018-05-17T18:20:14.044Z,188.00
2018-05-17T18:21:14.074Z,188.00
2018-05-17T18:22:14.056Z,188.00
2018-05-17T18:23:14.082Z,196.00
2018-05-17T18:24:14.072Z,196.00
2018-05-17T18:25:14.072Z,196.00
2018-05-17T18:26:14.079Z,192.00
2018-05-17T18:27:14.086Z,188.00
2018-05-17T18:28:14.095Z,180.00
2018-05-17T18:29:14.106Z,172.00
2018-05-17T18:30:14.104Z,160.00
2018-05-17T18:31:14.164Z,164.00
2018-05-17T18:32:14.118Z,160.00
2018-05-17T18:33:14.155Z,160.00
2018-05-17T18:34:14.132Z,156.00
2018-05-17T18:35:14.195Z,156.00
2018-05-17T18:36:14.148Z,156.00
2018-05-17T18:37:14.166Z,152.00
2018-05-17T18:38:14.163Z,148.00
2018-05-17T18:39:14.196Z,148.00
2018-05-17T18:40:14.171Z,140.00
2018-05-17T18:41:14.193Z,132.00
2018-05-17T18:42:14.268Z,124.00
2018-05-17T18:43:14.277Z,116.00
2018-05-17T18:44:14.217Z,108.00
2018-05-17T18:45:14.239Z,100.00
2018-05-17T18:46:14.221Z,96.00
2018-05-17T18:47:14.224Z,84.00
2018-05-17T18:48:14.229Z,80.00
2018-05-17T18:49:14.235Z,68.00
2018-05-17T18:50:14.240Z,60.00
2018-05-17T18:51:14.238Z,56.00
2018-05-17T18:52:14.256Z,48.00
2018-05-17T18:53:14.285Z,48.00
2018-05-17T18:54:14.296Z,48.00
2018-05-17T18:55:14.274Z,44.00
2018-05-17T18:56:14.283Z,40.00
2018-05-17T18:57:14.284Z,36.00
2018-05-17T18:58:14.324Z,32.00
2018-05-17T18:59:14.295Z,28.00
2018-05-17T19:00:14.354Z,28.00
2018-05-17T19:01:14.354Z,24.00
2018-05-17T19:02:14.423Z,20.00
2018-05-17T19:03:14.321Z,16.00
2018-05-17T19:04:14.327Z,20.00
2018-05-17T19:05:14.332Z,16.00
2018-05-17T19:06:14.339Z,16.00
2018-05-17T19:07:14.345Z,12.00
2018-05-17T19:08:14.351Z,12.00
2018-05-17T19:09:14.359Z,8.00
2018-05-17T19:10:14.380Z,8.00
2018-05-17T19:11:14.370Z,8.00
2018-05-17T19:12:14.411Z,8.00
2018-05-17T19:13:14.380Z,8.00
2018-05-17T19:14:14.433Z,8.00
2018-05-17T19:15:14.395Z,8.00
2018-05-17T19:16:14.402Z,4.00
2018-05-17T19:17:14.432Z,4.00
2018-05-17T19:18:14.447Z,4.00
2018-05-17T19:19:14.459Z,4.00
2018-05-17T19:20:14.434Z,4.00
2018-05-17T19:21:14.439Z,4.00
2018-05-17T19:22:14.442Z,0.00
2018-05-17T19:23:14.444Z,4.00
2018-05-17T19:24:14.451Z,0.00
2018-05-17T19:25:14.453Z,0.00
2018-05-17T19:26:14.469Z,4.00
2018-05-17T19:27:14.467Z,4.00
2018-05-17T19:28:14.478Z,0.00
2018-05-17T19:29:14.480Z,0.00
2018-05-17T19:30:14.501Z,0.00
2018-05-17T19:31:14.582Z,0.00
2018-05-17T19:32:14.562Z,0.00
2018-05-17T19:33:14.567Z,0.00
2018-05-17T19:34:14.511Z,0.00
2018-05-17T19:35:14.519Z,0.00
2018-05-17T19:36:14.516Z,0.00
2018-05-17T19:37:14.678Z,0.00
2018-05-17T19:38:14.538Z,0.00
2018-05-17T19:39:14.541Z,0.00
2018-05-17T19:40:14.571Z,0.00
2018-05-17T19:41:14.550Z,0.00
2018-05-17T19:42:14.559Z,0.00
2018-05-17T19:43:14.567Z,0.00
2018-05-17T19:44:14.579Z,0.00
2018-05-17T19:45:14.587Z,0.00
2018-05-17T19:46:14.585Z,0.00
2018-05-17T19:47:14.677Z,0.00
2018-05-17T19:48:14.595Z,0.00
2018-05-17T19:49:14.598Z,0.00
2018-05-17T19:50:14.606Z,0.00
2018-05-17T19:51:14.618Z,0.00
2018-05-17T19:52:14.618Z,0.00
2018-05-17T19:53:14.617Z,0.00
2018-05-17T19:54:14.657Z,0.00
2018-05-17T19:55:14.631Z,0.00
2018-05-17T19:56:14.644Z,0.00
2018-05-17T19:57:14.653Z,0.00
2018-05-17T19:58:14.650Z,0.00
2018-05-17T19:59:15.216Z,0.00
2018-05-17T20:00:14.682Z,0.00
2018-05-17T20:01:14.668Z,0.00
2018-05-17T20:02:14.674Z,0.00
2018-05-17T20:03:14.717Z,0.00
2018-05-17T20:04:14.735Z,0.00
2018-05-17T20:05:14.722Z,0.00
2018-05-17T20:06:14.695Z,0.00
2018-05-17T20:07:14.699Z,0.00
2018-05-17T20:08:14.713Z,0.00
2018-05-17T20:09:14.745Z,0.00
2018-05-17T20:10:14.720Z,0.00
2018-05-17T20:11:14.751Z,0.00
2018-05-17T20:12:14.736Z,0.00
2018-05-17T20:13:14.770Z,0.00
2018-05-17T20:14:14.741Z,0.00
2018-05-17T20:15:14.744Z,0.00
2018-05-17T20:16:14.786Z,0.00
2018-05-17T20:17:14.754Z,0.00
2018-05-17T20:18:14.759Z,0.00
2018-05-17T20:19:14.771Z,0.00
2018-05-17T20:20:14.782Z,0.00
2018-05-17T20:21:14.803Z,0.00
2018-05-17T20:22:14.808Z,0.00
2018-05-17T20:23:14.813Z,0.00
2018-05-17T20:24:14.802Z,0.00
2018-05-17T20:25:14.798Z,0.00
2018-05-17T20:26:14.869Z,0.00
2018-05-17T20:27:14.811Z,0.00
2018-05-17T20:28:14.921Z,0.00
2018-05-17T20:29:14.864Z,0.00
2018-05-17T20:30:14.844Z,0.00
2018-05-17T20:31:14.871Z,0.00
2018-05-17T20:32:14.861Z,0.00
2018-05-17T20:33:14.846Z,0.00
2018-05-17T20:34:14.852Z,0.00
2018-05-17T20:35:14.927Z,0.00
2018-05-17T20:36:14.876Z,0.00
2018-05-17T20:37:14.864Z,0.00
2018-05-17T20:38:14.871Z,0.00
2018-05-17T20:39:14.879Z,0.00
2018-05-17T20:40:14.883Z,0.00
2018-05-17T20:41:14.891Z,0.00
2018-05-17T20:42:14.892Z,0.00
2018-05-17T20:43:14.927Z,0.00
2018-05-17T20:44:14.904Z,0.00
2018-05-17T20:45:14.908Z,0.00
2018-05-17T20:46:14.911Z,0.00
2018-05-17T20:47:14.930Z,0.00
2018-05-17T20:48:15.005Z,0.00
2018-05-17T20:49:14.940Z,0.00
2018-05-17T20:50:15.005Z,0.00
2018-05-17T20:51:14.947Z,0.00
2018-05-17T20:52:14.956Z,0.00
2018-05-17T20:53:14.949Z,0.00
2018-05-17T20:54:14.990Z,0.00
2018-05-17T20:55:15.023Z,0.00
2018-05-17T20:56:14.965Z,0.00
2018-05-17T20:57:14.980Z,0.00
2018-05-17T20:58:14.978Z,0.00
2018-05-17T20:59:15.011Z,0.00
2018-05-17T21:00:15.017Z,0.00
2018-05-17T21:01:14.991Z,0.00
2018-05-17T21:02:15.007Z,0.00
2018-05-17T21:03:15.005Z,0.00
2018-05-17T21:04:15.013Z,0.00
2018-05-17T21:05:15.045Z,0.00
2018-05-17T21:06:15.094Z,0.00
2018-05-17T21:07:15.026Z,0.00
2018-05-17T21:08:15.032Z,0.00
2018-05-17T21:09:15.056Z,0.00
2018-05-17T21:10:15.064Z,0.00
2018-05-17T21:11:15.096Z,0.00
2018-05-17T21:12:15.109Z,0.00
2018-05-17T21:13:15.085Z,0.00
2018-05-17T21:14:15.089Z,0.00
2018-05-17T21:15:15.088Z,0.00
2018-05-17T21:16:15.142Z,0.00
2018-05-17T21:17:15.073Z,0.00
2018-05-17T21:18:15.082Z,0.00
2018-05-17T21:19:16.063Z,0.00
2018-05-17T21:20:15.087Z,0.00
2018-05-17T21:21:15.147Z,0.00
2018-05-17T21:22:15.138Z,0.00
2018-05-17T21:23:15.103Z,0.00
2018-05-17T21:24:15.112Z,0.00
2018-05-17T21:25:15.123Z,0.00
2018-05-17T21:26:15.152Z,0.00
2018-05-17T21:27:15.178Z,0.00
2018-05-17T21:28:15.129Z,0.00
2018-05-17T21:29:15.175Z,0.00
2018-05-17T21:30:15.157Z,0.00
2018-05-17T21:31:15.144Z,0.00
2018-05-17T21:32:15.144Z,0.00
2018-05-17T21:33:15.162Z,0.00
2018-05-17T21:34:15.157Z,0.00
2018-05-17T21:35:15.167Z,0.00
2018-05-17T21:36:15.167Z,0.00
2018-05-17T21:37:15.176Z,0.00
2018-05-17T21:38:15.176Z,0.00
2018-05-17T21:39:15.195Z,0.00
2018-05-17T21:40:15.243Z,0.00
2018-05-17T21:41:15.229Z,0.00
2018-05-17T21:42:15.231Z,0.00
2018-05-17T21:43:15.269Z,0.00
2018-05-17T21:44:15.242Z,0.00
2018-05-17T21:45:15.209Z,0.00
2018-05-17T21:46:15.214Z,0.00
2018-05-17T21:47:15.224Z,0.00
2018-05-17T21:48:15.246Z,0.00
2018-05-17T21:49:15.235Z,0.00
2018-05-17T21:50:15.272Z,0.00
2018-05-17T21:51:15.281Z,0.00
2018-05-17T21:52:15.252Z,0.00
2018-05-17T21:53:15.253Z,0.00
2018-05-17T21:54:15.256Z,0.00
2018-05-17T21:55:15.300Z,0.00
2018-05-17T21:56:15.262Z,0.00
2018-05-17T21:57:15.290Z,0.00
2018-05-17T21:58:15.335Z,0.00
2018-05-17T21:59:15.291Z,0.00
2018-05-17T22:00:15.341Z,0.00
2018-05-17T22:01:15.308Z,0.00
2018-05-17T22:02:15.320Z,0.00
2018-05-17T22:03:15.340Z,0.00
2018-05-17T22:04:15.345Z,0.00
2018-05-17T22:05:15.307Z,0.00
2018-05-17T22:06:15.309Z,0.00
2018-05-17T22:07:15.324Z,0.00
2018-05-17T22:08:15.364Z,0.00
2018-05-17T22:09:15.320Z,0.00
2018-05-17T22:10:15.324Z,0.00
2018-05-17T22:11:15.333Z,0.00
2018-05-17T22:12:15.352Z,0.00
2018-05-17T22:13:15.342Z,0.00
2018-05-17T22:14:15.371Z,0.00
2018-05-17T22:15:15.355Z,0.00
2018-05-17T22:16:15.382Z,0.00
2018-05-17T22:17:15.372Z,0.00
2018-05-17T22:18:15.403Z,0.00
2018-05-17T22:19:15.368Z,0.00
2018-05-17T22:20:15.370Z,0.00
2018-05-17T22:21:15.371Z,0.00
2018-05-17T22:22:15.381Z,0.00
2018-05-17T22:23:15.385Z,0.00
2018-05-17T22:24:15.424Z,0.00
2018-05-17T22:25:15.432Z,0.00
2018-05-17T22:26:15.399Z,0.00
2018-05-17T22:27:15.449Z,0.00
2018-05-17T22:28:15.436Z,0.00
2018-05-17T22:29:15.438Z,0.00
2018-05-17T22:30:15.419Z,0.00
2018-05-17T22:31:15.419Z,0.00
2018-05-17T22:32:15.435Z,0.00
2018-05-17T22:33:15.461Z,0.00
2018-05-17T22:34:15.439Z,0.00
2018-05-17T22:35:15.438Z,0.00
2018-05-17T22:36:15.446Z,0.00
2018-05-17T22:37:15.455Z,0.00
2018-05-17T22:38:15.452Z,0.00
2018-05-17T22:39:15.468Z,0.00
2018-05-17T22:40:15.458Z,0.00
2018-05-17T22:41:15.471Z,0.00
2018-05-17T22:42:15.468Z,0.00
2018-05-17T22:43:15.475Z,0.00
2018-05-17T22:44:15.476Z,0.00
2018-05-17T22:45:15.483Z,0.00
2018-05-17T22:46:15.488Z,0.00
2018-05-17T22:47:15.489Z,0.00
2018-05-17T22:48:15.509Z,0.00
2018-05-17T22:49:15.500Z,0.00
2018-05-17T22:50:15.514Z,0.00
2018-05-17T22:51:15.513Z,0.00
2018-05-17T22:52:15.515Z,0.00
2018-05-17T22:53:15.529Z,0.00
2018-05-17T22:54:15.521Z,0.00
2018-05-17T22:55:15.529Z,0.00
2018-05-17T22:56:15.534Z,0.00
2018-05-17T22:57:15.535Z,0.00
2018-05-17T22:58:15.557Z,0.00
2018-05-17T22:59:15.565Z,0.00
2018-05-17T23:00:15.588Z,0.00
2018-05-17T23:01:15.578Z,0.00
2018-05-17T23:02:15.560Z,0.00
2018-05-17T23:03:15.556Z,0.00
2018-05-17T23:04:15.566Z,0.00
2018-05-17T23:05:15.574Z,0.00
2018-05-17T23:06:15.637Z,0.00
2018-05-17T23:07:15.584Z,0.00
2018-05-17T23:08:15.577Z,0.00
2018-05-17T23:09:15.583Z,0.00
2018-05-17T23:10:15.588Z,0.00
2018-05-17T23:11:15.597Z,0.00
2018-05-17T23:12:15.604Z,0.00
2018-05-17T23:13:15.600Z,0.00
2018-05-17T23:14:15.608Z,0.00
2018-05-17T23:15:15.609Z,0.00
2018-05-17T23:16:15.621Z,0.00
2018-05-17T23:17:15.618Z,0.00
2018-05-17T23:18:15.634Z,0.00
2018-05-17T23:19:15.641Z,0.00
2018-05-17T23:20:15.628Z,0.00
2018-05-17T23:21:15.637Z,0.00
2018-05-17T23:22:15.636Z,0.00
2018-05-17T23:23:15.666Z,0.00
2018-05-17T23:24:15.654Z,0.00
2018-05-17T23:25:15.654Z,0.00
2018-05-17T23:26:15.684Z,0.00
2018-05-17T23:27:15.689Z,0.00
2018-05-17T23:28:15.696Z,0.00
2018-05-17T23:29:15.669Z,0.00
2018-05-17T23:30:15.673Z,0.00
2018-05-17T23:31:15.676Z,0.00
2018-05-17T23:32:15.738Z,0.00
2018-05-17T23:33:15.722Z,0.00
2018-05-17T23:34:15.698Z,0.00
2018-05-17T23:35:15.692Z,0.00
2018-05-17T23:36:15.745Z,0.00
2018-05-17T23:37:15.698Z,0.00
2018-05-17T23:38:15.706Z,0.00
2018-05-17T23:39:15.711Z,0.00
2018-05-17T23:40:15.725Z,0.00
2018-05-17T23:41:15.719Z,0.00
2018-05-17T23:42:15.726Z,0.00
2018-05-17T23:43:15.733Z,0.00
2018-05-17T23:44:15.743Z,0.00